Time;durP1;ratioP1;P1;durP2;ratioP2;P2;SDS_P1;SDS_P2;PMS_P1;PMS_P2;Temp;Humidity;BMP_temperature;BMP_pressure;BME280_temperature;BME280_humidity;BME280_pressure;Samples;Min_cycle;Max_cycle;Signal;HPM_P1;HPM_P2
2022/08/08 04:30:06;;;;;;;;;6.50;6.50;;;;;18.62;46.99;102014.25;6066666;23;46561;31
2022/08/08 04:32:32;;;;;;;;;7.00;6.00;;;;;18.62;46.67;102003.50;4938243;28;45250;-53
2022/08/08 04:34:57;;;;;;;;;5.67;5.67;;;;;18.61;46.51;102008.00;4942755;28;45493;-53
2022/08/08 04:37:23;;;;;;;;;6.67;5.67;;;;;18.59;46.64;102009.94;4937803;28;70526;-51
2022/08/08 04:39:48;;;;;;;;;7.67;7.67;;;;;18.59;46.50;102006.38;4940461;28;45381;-53
2022/08/08 04:42:14;;;;;;;;;3.00;3.00;;;;;18.58;47.02;102005.50;4943681;28;45453;-54
2022/08/08 04:44:39;;;;;;;;;8.00;6.00;;;;;18.58;46.90;102010.03;4940921;28;74238;-54
2022/08/08 04:47:04;;;;;;;;;7.00;5.00;;;;;18.57;46.87;102013.69;4944563;28;71429;-50
2022/08/08 04:49:30;;;;;;;;;7.00;7.00;;;;;18.56;46.46;102010.13;4950655;28;45464;-51
2022/08/08 04:51:55;;;;;;;;;7.33;5.67;;;;;18.54;47.16;102012.06;4946502;28;64130;-49
2022/08/08 04:54:21;;;;;;;;;6.33;5.67;;;;;18.50;47.05;102010.53;4945870;28;45370;-51
2022/08/08 04:56:46;;;;;;;;;7.00;7.00;;;;;18.47;47.09;102018.81;4940541;28;45710;-53
2022/08/08 04:59:12;;;;;;;;;4.33;4.33;;;;;18.44;47.10;102019.00;4951308;28;55465;-50
2022/08/08 05:01:37;;;;;;;;;9.00;8.00;;;;;18.41;47.10;102020.06;4944346;28;46257;-51
2022/08/08 05:04:02;;;;;;;;;5.33;5.33;;;;;18.39;47.01;102023.81;4944507;28;56655;-60
2022/08/08 05:06:28;;;;;;;;;7.00;7.00;;;;;18.44;46.36;102025.25;4943592;28;45373;-60
2022/08/08 05:08:53;;;;;;;;;6.67;6.33;;;;;18.49;46.77;102033.91;4940418;28;64890;-60
2022/08/08 05:11:19;;;;;;;;;7.67;6.67;;;;;18.49;46.97;102023.13;4943668;28;45381;-60
2022/08/08 05:13:45;;;;;;;;;7.33;7.33;;;;;18.52;46.24;102027.44;4944738;28;45247;-60
2022/08/08 05:16:10;;;;;;;;;7.67;6.00;;;;;18.55;46.08;102024.59;4944317;28;45258;-60
2022/08/08 05:18:36;;;;;;;;;6.67;5.67;;;;;18.56;46.28;102030.81;4960143;28;46538;-60
2022/08/08 05:21:03;;;;;;;;;7.00;6.00;;;;;18.55;46.74;102035.34;4938843;28;67888;-60
2022/08/08 05:23:28;;;;;;;;;5.67;5.67;;;;;18.53;46.46;102037.28;4940046;28;46362;-60
2022/08/08 05:25:53;;;;;;;;;7.00;7.00;;;;;18.51;46.75;102036.50;4943107;28;62807;-60
2022/08/08 05:28:19;;;;;;;;;6.00;5.33;;;;;18.51;46.51;102037.38;4943220;28;65064;-61
2022/08/08 05:30:44;;;;;;;;;8.00;7.00;;;;;18.54;47.26;102039.00;4947628;28;64409;-60
2022/08/08 05:33:09;;;;;;;;;7.33;7.33;;;;;18.54;46.92;102047.09;4960103;28;72262;-60
2022/08/08 05:35:35;;;;;;;;;9.00;9.00;;;;;18.55;46.60;102047.94;4963070;28;70295;-60
2022/08/08 05:38:05;;;;;;;;;6.33;6.33;;;;;18.57;46.23;102052.28;4962633;28;48568;-60
2022/08/08 05:40:32;;;;;;;;;8.67;7.00;;;;;18.62;47.45;102058.22;4957095;28;45453;-61
2022/08/08 05:43:04;;;;;;;;;8.00;7.00;;;;;18.62;46.59;102052.84;4964202;28;45286;-59
2022/08/08 05:45:37;;;;;;;;;7.67;6.00;;;;;18.60;46.62;102052.06;4960730;28;45338;-59
2022/08/08 05:48:03;;;;;;;;;8.00;8.00;;;;;18.61;46.47;102052.94;4962204;28;45891;-59
2022/08/08 05:50:30;;;;;;;;;8.33;8.00;;;;;18.60;46.82;102054.75;4961951;28;45653;-59
2022/08/08 05:52:56;;;;;;;;;6.33;6.33;;;;;18.61;46.59;102058.34;4957608;28;46198;-59
2022/08/08 05:55:21;;;;;;;;;8.00;8.00;;;;;18.64;46.94;102055.44;4960473;28;45310;-59
2022/08/08 05:57:50;;;;;;;;;9.33;8.00;;;;;18.63;46.91;102059.97;4959677;28;45465;-60
2022/08/08 06:00:16;;;;;;;;;9.00;7.00;;;;;18.65;46.70;102055.31;4963566;28;45465;-60
2022/08/08 06:05:31;;;;;;;;;8.00;6.67;;;;;18.71;47.09;102055.91;4969140;28;45317;-60
2022/08/08 06:07:56;;;;;;;;;6.67;6.00;;;;;18.80;47.40;102058.03;4966467;28;45305;-59
2022/08/08 06:10:22;;;;;;;;;8.00;6.00;;;;;18.87;46.85;102061.19;4964975;28;68157;-59
2022/08/08 06:12:49;;;;;;;;;8.00;6.00;;;;;18.94;46.89;102063.41;4962150;28;46020;-62
2022/08/08 06:15:15;;;;;;;;;11.67;8.33;;;;;18.95;47.31;102064.25;4964876;28;45461;-60
2022/08/08 06:17:40;;;;;;;;;11.33;8.67;;;;;18.96;47.06;102063.28;4960303;28;45742;-59
2022/08/08 06:20:08;;;;;;;;;6.67;6.67;;;;;18.97;46.83;102065.88;4960858;28;45631;-60
2022/08/08 06:22:34;;;;;;;;;7.00;7.00;;;;;19.00;46.89;102076.44;4960641;28;46381;-60
2022/08/08 06:25:00;;;;;;;;;9.33;9.00;;;;;19.04;46.92;102071.72;4960761;28;46631;-60
2022/08/08 06:27:41;;;;;;;;;9.00;7.00;;;;;19.11;46.83;102075.78;4959076;28;45607;-60
2022/08/08 06:30:09;;;;;;;;;7.00;6.33;;;;;19.16;46.58;102078.13;4954414;28;45706;-59
2022/08/08 06:32:44;;;;;;;;;7.00;7.00;;;;;19.24;46.56;102083.91;4961358;28;46151;-60
2022/08/08 06:35:11;;;;;;;;;6.33;6.33;;;;;19.32;46.08;102086.94;4964229;28;45389;-60
2022/08/08 06:37:38;;;;;;;;;9.00;7.00;;;;;19.41;46.07;102088.16;4955508;28;46885;-59
2022/08/08 06:40:05;;;;;;;;;7.00;7.00;;;;;19.57;45.95;102084.41;4958479;28;45858;-59
2022/08/08 06:42:35;;;;;;;;;6.33;5.33;;;;;19.77;45.74;102093.84;4956826;28;46147;-60
2022/08/08 06:45:02;;;;;;;;;7.67;7.67;;;;;19.92;44.90;102083.84;4973269;28;45875;-60
2022/08/08 06:47:28;;;;;;;;;4.00;3.00;;;;;20.08;44.86;102078.28;4973300;28;45397;-59
2022/08/08 06:49:54;;;;;;;;;4.00;4.00;;;;;20.28;44.46;102082.25;4956114;28;46581;-60
2022/08/08 06:52:19;;;;;;;;;6.67;6.67;;;;;20.44;44.31;102084.72;4971699;28;45287;-59
2022/08/08 06:54:45;;;;;;;;;5.00;5.00;;;;;20.61;44.24;102084.38;4949756;28;66549;-60
2022/08/08 06:57:11;;;;;;;;;7.33;7.33;;;;;20.79;43.69;102084.91;4960649;28;45471;-60
2022/08/08 06:59:36;;;;;;;;;8.67;7.00;;;;;20.98;43.47;102080.84;4957934;28;62643;-60
2022/08/08 07:02:03;;;;;;;;;7.33;7.33;;;;;21.14;42.27;102085.94;4962505;28;46080;-59
2022/08/08 07:04:36;;;;;;;;;7.00;5.67;;;;;21.30;42.13;102091.06;4952998;28;45766;-60
2022/08/08 07:07:04;;;;;;;;;7.00;7.00;;;;;21.49;42.01;102093.25;4962160;28;45710;-60
2022/08/08 07:09:37;;;;;;;;;7.00;6.00;;;;;21.63;41.64;102092.25;4947543;28;46013;-60
2022/08/08 07:12:06;;;;;;;;;7.00;7.00;;;;;21.77;41.50;102092.03;4953006;28;45539;-60
2022/08/08 07:14:44;;;;;;;;;1.00;1.00;;;;;21.93;41.32;102101.69;4962779;28;45387;-60
2022/08/08 07:17:16;;;;;;;;;8.33;7.00;;;;;22.11;41.20;102099.34;4968119;28;45496;-60
2022/08/08 07:19:44;;;;;;;;;8.00;8.00;;;;;22.30;40.69;102099.59;4961232;28;45350;-60
2022/08/08 07:22:11;;;;;;;;;10.67;8.67;;;;;22.48;39.63;102101.88;4968425;28;46328;-60
2022/08/08 07:24:43;;;;;;;;;8.00;6.00;;;;;22.67;40.02;102105.81;4968146;28;45509;-61
2022/08/08 07:27:14;;;;;;;;;7.00;7.00;;;;;22.87;39.06;102107.75;4977819;28;45470;-60
2022/08/08 07:29:39;;;;;;;;;6.33;6.33;;;;;23.08;39.19;102112.41;4956088;28;45491;-61
2022/08/08 07:32:09;;;;;;;;;6.00;4.33;;;;;23.29;38.83;102116.06;4958937;28;46253;-63
2022/08/08 07:34:36;;;;;;;;;7.00;7.00;;;;;23.51;38.54;102118.84;4959745;28;45413;-61
2022/08/08 07:37:03;;;;;;;;;6.00;6.00;;;;;23.56;37.79;102108.44;4958398;28;69169;-61
2022/08/08 07:39:30;;;;;;;;;7.33;7.33;;;;;23.68;37.89;102112.81;4958296;28;45407;-61
2022/08/08 07:41:56;;;;;;;;;6.33;5.00;;;;;23.89;37.40;102117.41;4955013;28;46414;-61
2022/08/08 07:44:22;;;;;;;;;5.33;5.33;;;;;24.07;37.31;102115.81;4959206;28;45420;-61
2022/08/08 07:46:47;;;;;;;;;7.00;7.00;;;;;24.24;36.79;102108.91;4966092;28;63933;-61
2022/08/08 07:49:13;;;;;;;;;7.00;7.00;;;;;24.50;36.89;102118.50;4954684;28;45689;-60
2022/08/08 07:51:40;;;;;;;;;7.00;6.33;;;;;24.80;36.46;102120.34;4951234;28;73631;-61
2022/08/08 07:54:33;;;;;;;;;9.67;9.00;;;;;25.08;35.14;102109.66;4955793;28;45559;-61
2022/08/08 07:57:11;;;;;;;;;6.00;6.00;;;;;25.35;34.99;102113.59;4970986;28;45483;-61
2022/08/08 07:59:57;;;;;;;;;7.67;7.33;;;;;25.66;35.36;102116.19;4954617;28;45342;-61
2022/08/08 08:02:28;;;;;;;;;7.33;7.33;;;;;25.85;33.21;102116.16;4956307;28;46306;-61
2022/08/08 08:04:55;;;;;;;;;7.00;6.67;;;;;26.22;33.89;102109.91;4957521;28;45279;-61
2022/08/08 08:07:23;;;;;;;;;8.00;6.67;;;;;26.53;33.15;102117.84;4957391;28;45819;-61
2022/08/08 08:09:48;;;;;;;;;8.67;6.67;;;;;26.67;31.87;102115.63;4955279;28;46080;-61
2022/08/08 08:12:15;;;;;;;;;8.33;6.33;;;;;26.75;31.92;102115.75;4957992;28;69063;-61
2022/08/08 08:15:01;;;;;;;;;8.67;7.00;;;;;27.09;31.76;102117.81;4957519;28;45326;-61
2022/08/08 08:17:27;;;;;;;;;4.33;4.00;;;;;27.52;31.88;102110.78;4961070;28;47022;-61
2022/08/08 08:19:57;;;;;;;;;8.00;5.00;;;;;27.92;29.89;102107.69;4958579;28;45443;-61
2022/08/08 08:22:23;;;;;;;;;8.33;6.00;;;;;28.29;29.00;102118.38;4963108;28;45404;-61
2022/08/08 08:24:48;;;;;;;;;6.00;6.00;;;;;28.73;30.22;102116.56;4960496;28;65563;-61
2022/08/08 08:27:13;;;;;;;;;7.33;6.33;;;;;29.12;29.04;102116.81;4962244;28;66034;-63
2022/08/08 08:29:39;;;;;;;;;6.67;6.00;;;;;29.47;28.43;102119.47;4962237;28;51656;-62
2022/08/08 08:32:04;;;;;;;;;8.00;5.33;;;;;29.80;27.69;102123.09;4960820;28;46115;-61
2022/08/08 08:34:30;;;;;;;;;5.67;5.67;;;;;29.88;27.04;102116.75;4962359;28;45265;-61
2022/08/08 08:36:55;;;;;;;;;4.67;4.33;;;;;30.20;26.99;102110.34;4962925;28;63165;-61
2022/08/08 08:39:20;;;;;;;;;8.67;5.00;;;;;30.63;27.05;102118.28;4960389;28;68298;-61
2022/08/08 08:41:47;;;;;;;;;6.00;4.67;;;;;30.90;27.00;102113.34;4962998;28;68843;-61
2022/08/08 08:44:13;;;;;;;;;4.00;3.00;;;;;31.01;26.09;102121.16;4961707;28;45337;-61
2022/08/08 08:46:38;;;;;;;;;6.00;6.00;;;;;31.29;25.78;102112.44;4964145;28;45367;-61
2022/08/08 08:49:04;;;;;;;;;7.00;5.33;;;;;31.66;25.95;102116.28;4960938;28;45371;-62
2022/08/08 08:51:30;;;;;;;;;8.00;5.33;;;;;31.99;24.35;102117.88;4958935;28;73013;-60
2022/08/08 08:54:00;;;;;;;;;6.67;5.67;;;;;32.07;23.54;102126.06;4960292;28;45398;-62
2022/08/08 08:56:26;;;;;;;;;6.00;6.00;;;;;32.38;24.53;102124.19;4959673;28;46999;-62
2022/08/08 08:58:51;;;;;;;;;5.00;5.00;;;;;32.71;24.55;102121.88;4960606;28;45504;-62
2022/08/08 09:01:20;;;;;;;;;6.67;5.00;;;;;33.08;23.32;102120.00;4960022;28;46706;-62
2022/08/08 09:03:47;;;;;;;;;3.33;3.33;;;;;33.28;22.03;102114.75;4962258;28;45539;-62
2022/08/08 09:06:21;;;;;;;;;2.67;2.67;;;;;32.88;22.39;102118.91;4967650;28;45510;-62
2022/08/08 09:08:55;;;;;;;;;2.00;1.67;;;;;32.29;23.09;102126.16;4959862;28;45790;-62
2022/08/08 09:11:21;;;;;;;;;4.00;1.00;;;;;31.83;23.45;102124.38;4958545;28;46852;-62
2022/08/08 09:13:47;;;;;;;;;5.67;5.67;;;;;31.38;23.40;102126.97;4959426;28;45416;-61
2022/08/08 09:16:12;;;;;;;;;4.00;3.00;;;;;31.17;24.35;102122.13;4975102;28;45501;-61
2022/08/08 09:18:42;;;;;;;;;2.67;2.67;;;;;30.99;24.12;102123.25;4959288;28;45626;-62
2022/08/08 09:21:08;;;;;;;;;5.33;3.67;;;;;30.96;23.88;102125.50;4959938;28;47245;-61
2022/08/08 09:23:34;;;;;;;;;3.33;3.33;;;;;31.02;23.83;102119.28;4958774;28;45566;-61
2022/08/08 09:26:36;;;;;;;;;3.00;3.00;;;;;31.01;23.98;102109.34;4960953;28;45329;-61
2022/08/08 09:29:02;;;;;;;;;5.33;4.33;;;;;30.93;24.40;102110.22;4958509;28;45762;-61
2022/08/08 09:31:30;;;;;;;;;5.00;5.00;;;;;30.84;23.84;102109.41;4959703;28;46695;-61
2022/08/08 09:33:57;;;;;;;;;3.67;3.67;;;;;30.84;24.52;102103.09;4961549;28;45361;-61
2022/08/08 09:36:22;;;;;;;;;4.00;4.00;;;;;31.01;24.91;102110.16;4959104;28;62543;-61
2022/08/08 09:38:58;;;;;;;;;5.00;5.00;;;;;30.99;23.94;102105.94;4975817;28;46160;-61
2022/08/08 09:41:38;;;;;;;;;5.33;4.33;;;;;31.07;24.64;102105.91;4953249;28;45825;-62
2022/08/08 09:44:14;;;;;;;;;3.00;3.00;;;;;31.12;24.49;102094.34;4958169;28;45497;-61
2022/08/08 09:46:41;;;;;;;;;5.67;4.67;;;;;31.15;23.24;102099.50;4961569;28;45976;-61
2022/08/08 09:49:07;;;;;;;;;3.33;2.33;;;;;31.34;24.19;102098.13;4961024;28;45461;-62
2022/08/08 09:51:38;;;;;;;;;2.00;2.00;;;;;31.75;23.04;102100.56;4959353;28;47045;-61
2022/08/08 09:54:05;;;;;;;;;3.33;3.00;;;;;31.96;22.84;102105.34;4976665;28;45435;-61
2022/08/08 09:56:33;;;;;;;;;2.67;2.67;;;;;32.04;22.30;102104.41;4959816;28;45609;-61
2022/08/08 09:59:03;;;;;;;;;3.33;3.33;;;;;32.14;22.06;102095.88;4958279;28;46660;-61
2022/08/08 10:01:33;;;;;;;;;2.00;2.00;;;;;32.42;23.18;102095.22;4955330;28;47031;-61
2022/08/08 10:04:00;;;;;;;;;3.00;3.00;;;;;32.90;22.25;102095.63;4956627;28;45507;-61
2022/08/08 10:06:26;;;;;;;;;5.67;3.33;;;;;33.03;21.30;102092.19;4955131;28;45410;-61
2022/08/08 10:08:52;;;;;;;;;4.00;2.33;;;;;33.07;21.25;102093.50;4956411;28;45591;-61
2022/08/08 10:11:22;;;;;;;;;3.67;2.00;;;;;33.30;21.49;102098.00;4957418;28;46073;-61
2022/08/08 10:13:52;;;;;;;;;1.00;1.00;;;;;33.69;21.14;102087.50;4958941;28;45436;-61
2022/08/08 10:16:17;;;;;;;;;3.00;3.00;;;;;34.27;21.24;102087.28;4956177;28;45389;-61
2022/08/08 10:18:42;;;;;;;;;1.00;1.00;;;;;34.84;20.41;102078.88;4953194;28;58994;-61
2022/08/08 10:21:11;;;;;;;;;0.33;0.33;;;;;35.44;19.04;102071.53;4958580;28;71535;-61
2022/08/08 10:23:40;;;;;;;;;2.00;2.00;;;;;36.16;19.31;102081.03;4973591;28;45812;-61
2022/08/08 10:26:09;;;;;;;;;6.33;3.00;;;;;36.78;18.44;102094.41;4960901;28;45329;-61
2022/08/08 10:28:36;;;;;;;;;2.67;2.67;;;;;37.08;17.07;102070.59;4959528;28;45618;-62
2022/08/08 10:32:30;;;;;;;;;3.33;3.33;;;;;37.31;16.23;102080.25;4959034;28;47071;-61
2022/08/08 10:33:51;;;;;;;;;1.33;1.00;;;;;37.27;16.54;102075.38;4956968;28;45345;-61
2022/08/08 10:36:22;;;;;;;;;2.67;2.67;;;;;37.26;16.41;102074.50;4955134;28;45526;-62
2022/08/08 10:38:48;;;;;;;;;2.67;2.00;;;;;37.32;16.19;102078.34;4958109;28;45561;-61
2022/08/08 10:41:16;;;;;;;;;2.67;2.67;;;;;37.53;16.67;102077.09;4969170;28;75401;-61
2022/08/08 10:43:41;;;;;;;;;3.00;3.00;;;;;37.60;16.60;102072.34;4953694;28;45521;-61
2022/08/08 10:46:25;;;;;;;;;2.00;2.00;;;;;37.84;16.75;102069.78;4956700;28;45501;-61
2022/08/08 10:48:55;;;;;;;;;2.67;2.67;;;;;38.26;16.39;102072.75;4958860;28;45779;-61
2022/08/08 10:51:25;;;;;;;;;1.25;1.25;;;;;38.52;15.55;102062.38;4960691;28;45967;-61
2022/08/08 10:53:53;;;;;;;;;4.00;2.00;;;;;38.67;15.60;102065.59;4971724;28;45322;-61
2022/08/08 10:56:22;;;;;;;;;4.33;3.00;;;;;38.98;15.69;102068.38;4956268;28;45637;-61
2022/08/08 10:58:58;;;;;;;;;2.33;2.33;;;;;39.13;14.85;102062.38;4958199;28;45532;-61
2022/08/08 11:01:28;;;;;;;;;1.33;1.33;;;;;39.15;14.12;102055.50;4956075;28;46321;-61
2022/08/08 11:03:57;;;;;;;;;1.33;1.33;;;;;38.90;14.72;102072.34;4965319;28;45448;-61
2022/08/08 11:06:22;;;;;;;;;4.33;4.33;;;;;38.39;15.00;102071.75;4964494;28;45396;-62
2022/08/08 11:08:47;;;;;;;;;4.00;2.67;;;;;38.27;15.45;102066.13;4964290;28;61701;-61
2022/08/08 11:11:13;;;;;;;;;0.00;0.00;;;;;38.61;15.74;102065.69;4962933;28;73688;-61
2022/08/08 11:13:42;;;;;;;;;1.67;1.00;;;;;38.95;15.45;102066.09;4960473;28;45749;-61
2022/08/08 11:16:11;;;;;;;;;1.75;1.75;;;;;38.99;14.50;102054.22;4979152;28;45691;-61
2022/08/08 11:18:38;;;;;;;;;1.25;1.25;;;;;39.02;14.32;102067.66;4958898;28;45369;-61
2022/08/08 11:21:05;;;;;;;;;1.67;1.67;;;;;38.97;14.37;102055.56;4958580;28;46178;-61
2022/08/08 11:23:33;;;;;;;;;3.67;2.00;;;;;39.10;14.81;102054.50;4970483;28;45424;-61
2022/08/08 11:26:04;;;;;;;;;3.33;3.33;;;;;39.29;14.32;102058.91;4979167;28;45642;-61
2022/08/08 11:28:33;;;;;;;;;3.67;2.67;;;;;39.22;14.52;102049.84;4956736;28;45946;-61
2022/08/08 11:30:59;;;;;;;;;2.00;2.00;;;;;39.27;14.58;102060.22;4964325;28;45368;-62
2022/08/08 11:33:27;;;;;;;;;5.00;2.33;;;;;39.38;14.57;102054.69;4974084;28;45439;-61
2022/08/08 11:35:54;;;;;;;;;2.67;2.67;;;;;39.27;14.02;102055.53;4959034;28;45497;-61
2022/08/08 11:38:19;;;;;;;;;2.67;2.67;;;;;39.17;14.59;102049.69;4958179;28;45714;-61
2022/08/08 11:40:46;;;;;;;;;5.00;3.00;;;;;39.29;14.60;102046.94;4951003;28;72633;-62
2022/08/08 11:43:12;;;;;;;;;1.33;1.33;;;;;39.59;13.85;102040.44;4955915;28;45629;-61
2022/08/08 11:45:39;;;;;;;;;3.67;2.33;;;;;39.82;13.50;102056.28;4958465;28;65229;-62
2022/08/08 11:48:05;;;;;;;;;1.00;1.00;;;;;39.68;13.60;102045.41;4968600;28;45532;-61
2022/08/08 11:50:31;;;;;;;;;1.33;1.33;;;;;39.66;12.64;102036.47;4957122;28;46375;-61
2022/08/08 11:52:56;;;;;;;;;1.00;1.00;;;;;39.46;13.94;102024.81;4960803;28;45611;-61
2022/08/08 11:55:26;;;;;;;;;1.33;1.33;;;;;39.30;13.76;102035.56;4977524;28;45539;-61
2022/08/08 11:58:08;;;;;;;;;3.00;3.00;;;;;39.11;13.80;102040.34;4958914;28;45558;-61
2022/08/08 12:00:43;;;;;;;;;1.00;1.00;;;;;38.58;13.25;102047.56;4961308;28;46067;-61
2022/08/08 12:03:23;;;;;;;;;2.00;2.00;;;;;37.83;14.03;102030.06;4958175;28;45302;-61
2022/08/08 12:05:50;;;;;;;;;3.67;3.00;;;;;37.20;14.98;102029.13;4959677;28;45612;-61
2022/08/08 12:08:16;;;;;;;;;3.00;3.00;;;;;36.80;15.60;102031.31;4957950;28;45454;-61
2022/08/08 12:10:47;;;;;;;;;0.00;0.00;;;;;36.39;15.51;102028.78;4955173;28;46325;-61
2022/08/08 12:13:21;;;;;;;;;4.67;4.67;;;;;35.87;15.95;102031.50;4961379;28;45496;-61
2022/08/08 12:15:49;;;;;;;;;2.00;2.00;;;;;35.70;15.81;102016.41;4958358;28;45427;-62
2022/08/08 12:18:19;;;;;;;;;3.25;3.25;;;;;35.76;15.80;102013.63;4967482;28;45357;-61
2022/08/08 12:20:45;;;;;;;;;2.00;1.33;;;;;35.66;16.81;102026.19;4961781;28;46310;-61
2022/08/08 12:23:11;;;;;;;;;3.00;3.00;;;;;35.46;16.33;102020.69;4964701;28;45583;-61
2022/08/08 12:25:36;;;;;;;;;2.00;2.00;;;;;35.31;16.83;102016.19;4965265;28;45618;-61
2022/08/08 12:28:12;;;;;;;;;3.00;3.00;;;;;35.30;16.70;102006.19;4962581;28;46257;-61
2022/08/08 12:30:37;;;;;;;;;1.33;1.00;;;;;35.14;16.99;101998.31;4957509;28;46151;-62
2022/08/08 12:33:03;;;;;;;;;1.00;1.00;;;;;34.85;16.38;101995.78;4962813;28;45566;-62
2022/08/08 12:35:38;;;;;;;;;3.00;3.00;;;;;34.73;16.91;102003.81;4959840;28;66411;-62
2022/08/08 12:38:07;;;;;;;;;2.33;2.33;;;;;34.53;17.12;102002.91;4967830;28;45644;-62
2022/08/08 12:40:43;;;;;;;;;3.33;3.33;;;;;34.20;16.88;102001.69;4952567;28;46395;-62
2022/08/08 12:43:09;;;;;;;;;2.00;1.00;;;;;34.02;17.24;101999.47;4961928;28;45412;-62
2022/08/08 12:45:36;;;;;;;;;1.00;1.00;;;;;33.90;17.54;101998.38;4956364;28;45450;-62
2022/08/08 12:48:04;;;;;;;;;1.67;0.33;;;;;33.83;17.67;101989.19;4971845;28;45764;-61
2022/08/08 12:50:43;;;;;;;;;0.67;0.00;;;;;33.69;17.96;101991.84;4952839;28;46134;-61
2022/08/08 12:53:23;;;;;;;;;2.00;2.00;;;;;33.63;17.95;101996.25;4957621;28;45608;-61
2022/08/08 12:56:07;;;;;;;;;2.00;2.00;;;;;33.51;17.91;101984.09;4955037;28;45436;-62
2022/08/08 12:58:47;;;;;;;;;1.00;1.00;;;;;33.25;18.17;101990.22;4956023;28;45342;-61
2022/08/08 13:01:12;;;;;;;;;1.00;1.00;;;;;33.04;18.39;101986.44;4957582;28;46375;-61
2022/08/08 13:03:46;;;;;;;;;1.33;1.33;;;;;32.88;18.36;101992.22;4958840;28;45488;-61
2022/08/08 13:06:16;;;;;;;;;1.67;1.67;;;;;32.78;18.85;102000.81;4962562;28;45555;-61
2022/08/08 13:08:42;;;;;;;;;1.00;1.00;;;;;32.65;19.04;101987.72;4959817;28;45477;-62
2022/08/08 13:11:20;;;;;;;;;3.67;2.33;;;;;32.56;19.54;101991.66;4965089;28;45523;-61
2022/08/08 13:14:10;;;;;;;;;3.33;3.00;;;;;32.38;19.17;101984.66;4963626;28;45728;-62
2022/08/08 13:16:36;;;;;;;;;2.00;2.00;;;;;32.23;19.45;101981.09;4962390;28;47019;-61
2022/08/08 13:19:02;;;;;;;;;2.00;2.00;;;;;32.08;18.92;101986.59;4964373;28;45833;-61
2022/08/08 13:21:29;;;;;;;;;1.00;1.00;;;;;31.95;18.78;101982.59;4965326;28;45457;-61
2022/08/08 13:23:55;;;;;;;;;2.00;2.00;;;;;31.91;19.24;101995.03;4966578;28;45302;-61
2022/08/08 13:26:21;;;;;;;;;2.00;2.00;;;;;31.76;20.01;101991.41;4961690;28;45429;-61
2022/08/08 13:28:46;;;;;;;;;3.00;3.00;;;;;31.50;20.55;101989.97;4959881;28;45855;-61
2022/08/08 13:31:12;;;;;;;;;3.00;3.00;;;;;31.39;20.50;101990.41;4960814;28;46202;-61
2022/08/08 13:33:39;;;;;;;;;2.67;1.67;;;;;31.32;20.47;101979.31;4963824;28;45450;-61
2022/08/08 13:36:05;;;;;;;;;3.33;3.33;;;;;31.31;19.88;101980.34;4962652;28;45437;-61
2022/08/08 13:38:31;;;;;;;;;2.00;2.00;;;;;31.26;20.67;101975.41;4966237;28;45416;-61
2022/08/08 13:40:56;;;;;;;;;2.00;0.67;;;;;31.27;19.79;101976.28;4960479;28;45393;-61
2022/08/08 13:43:22;;;;;;;;;4.00;4.00;;;;;31.13;18.97;101984.31;4963106;28;45646;-61
2022/08/08 13:45:47;;;;;;;;;2.67;2.67;;;;;30.94;19.90;101984.78;4959312;28;68361;-61
2022/08/08 13:48:14;;;;;;;;;2.67;2.67;;;;;30.84;19.92;101961.13;4957557;28;46433;-61
2022/08/08 13:50:47;;;;;;;;;0.50;0.25;;;;;30.84;19.74;101966.63;4958259;28;45393;-61
2022/08/08 13:53:12;;;;;;;;;0.67;0.67;;;;;30.81;19.73;101971.66;4965276;28;45488;-61
2022/08/08 13:55:38;;;;;;;;;1.00;1.00;;;;;30.71;20.04;101965.56;4965392;28;45264;-61
2022/08/08 13:58:17;;;;;;;;;0.67;0.00;;;;;30.59;20.45;101956.88;4959994;28;45438;-62
2022/08/08 14:00:42;;;;;;;;;1.00;1.00;;;;;30.59;19.95;101956.88;4973266;28;46839;-62
2022/08/08 14:03:07;;;;;;;;;1.67;0.00;;;;;30.62;19.83;101965.59;4962579;28;72993;-62
2022/08/08 14:05:33;;;;;;;;;2.00;2.00;;;;;30.60;20.50;101966.81;4978691;28;45416;-61
2022/08/08 14:07:58;;;;;;;;;0.00;0.00;;;;;30.48;20.53;101956.28;4956369;28;46126;-61
2022/08/08 14:10:24;;;;;;;;;1.00;1.00;;;;;30.39;19.89;101960.06;4971506;28;46045;-61
2022/08/08 14:12:50;;;;;;;;;2.00;2.00;;;;;30.31;19.79;101960.09;4965544;28;46058;-61
2022/08/08 14:15:35;;;;;;;;;1.00;1.00;;;;;30.27;20.04;101948.66;4968629;28;45609;-60
2022/08/08 14:18:03;;;;;;;;;0.33;0.33;;;;;30.27;19.42;101948.66;4964482;28;45571;-61
2022/08/08 14:20:33;;;;;;;;;0.00;0.00;;;;;30.24;19.63;101949.00;4971915;28;45425;-63
2022/08/08 14:23:07;;;;;;;;;1.33;1.33;;;;;30.22;19.98;101937.38;4967958;28;46262;-63
2022/08/08 14:25:45;;;;;;;;;0.67;0.67;;;;;30.20;19.68;101936.69;4963711;28;45333;-62
2022/08/08 14:28:11;;;;;;;;;0.67;0.67;;;;;30.19;20.21;101937.69;4965161;28;45393;-62
2022/08/08 14:30:36;;;;;;;;;0.67;0.67;;;;;30.23;19.71;101935.47;4962209;28;61567;-62
2022/08/08 14:33:03;;;;;;;;;1.00;1.00;;;;;30.27;20.49;101942.28;4970472;28;45409;-62
2022/08/08 14:35:29;;;;;;;;;1.33;1.33;;;;;30.24;19.65;101935.28;4946512;28;45371;-63
2022/08/08 14:37:54;;;;;;;;;1.00;1.00;;;;;30.28;20.22;101927.53;4974408;28;45364;-62
2022/08/08 14:40:23;;;;;;;;;2.00;2.00;;;;;30.24;19.75;101927.03;4973411;28;50462;-61
2022/08/08 14:42:53;;;;;;;;;1.67;1.67;;;;;30.20;20.48;101936.69;4963300;28;45306;-62
2022/08/08 14:45:19;;;;;;;;;1.00;1.00;;;;;30.12;20.25;101921.13;4978858;28;45494;-62
2022/08/08 14:47:45;;;;;;;;;0.00;0.00;;;;;30.09;20.63;101928.84;4959205;28;45541;-60
2022/08/08 14:50:16;;;;;;;;;0.67;0.67;;;;;30.07;20.14;101926.28;4961993;28;47156;-60
2022/08/08 14:52:46;;;;;;;;;1.00;1.00;;;;;30.08;19.94;101925.25;4959915;28;45500;-61
2022/08/08 14:55:11;;;;;;;;;1.33;1.33;;;;;30.08;19.98;101921.63;4964206;28;45696;-61
2022/08/08 14:57:37;;;;;;;;;1.67;0.67;;;;;30.11;20.22;101927.63;4961662;28;45380;-61
2022/08/08 15:00:05;;;;;;;;;1.00;1.00;;;;;30.15;20.43;101909.78;4962455;28;46154;-61
2022/08/08 15:02:30;;;;;;;;;0.67;0.67;;;;;30.19;19.83;101919.38;4964205;28;45352;-61
2022/08/08 15:04:56;;;;;;;;;1.33;1.33;;;;;30.16;19.01;101922.47;4966359;28;45544;-61
2022/08/08 15:07:21;;;;;;;;;2.67;2.00;;;;;30.08;19.31;101921.63;4962960;28;52135;-60
2022/08/08 15:09:47;;;;;;;;;1.00;1.00;;;;;29.95;19.40;101920.34;4962521;28;61404;-60
2022/08/08 15:12:12;;;;;;;;;0.00;0.00;;;;;29.88;20.13;101926.72;4959146;28;63708;-60
2022/08/08 15:14:38;;;;;;;;;1.67;1.67;;;;;29.84;20.25;101920.69;4972317;28;45573;-61
2022/08/08 15:17:03;;;;;;;;;1.75;1.75;;;;;29.73;20.25;101908.22;4959594;28;61470;-60
2022/08/08 15:19:28;;;;;;;;;3.00;1.67;;;;;29.65;20.16;101913.75;4960042;28;45326;-61
2022/08/08 15:21:54;;;;;;;;;3.00;1.67;;;;;29.63;20.33;101915.81;4958833;28;70787;-60
2022/08/08 15:24:19;;;;;;;;;1.67;1.67;;;;;29.59;21.01;101906.22;4959559;28;45829;-61
2022/08/08 15:26:44;;;;;;;;;2.00;2.00;;;;;29.58;20.57;101899.91;4957432;28;45338;-61
2022/08/08 15:29:10;;;;;;;;;0.00;0.00;;;;;29.63;20.71;101904.84;4955480;28;46055;-61
2022/08/08 15:31:36;;;;;;;;;2.00;2.00;;;;;29.63;20.69;101911.16;4953166;28;45385;-61
2022/08/08 15:34:02;;;;;;;;;1.33;1.33;;;;;29.65;20.26;101908.28;4955692;28;45658;-61
2022/08/08 15:36:28;;;;;;;;;0.00;0.00;;;;;29.64;20.50;101903.81;4958394;28;45886;-61
2022/08/08 15:38:53;;;;;;;;;0.67;0.67;;;;;29.61;20.77;101913.25;4959697;28;45543;-63
2022/08/08 15:41:19;;;;;;;;;1.00;1.00;;;;;29.55;20.51;101916.69;4958436;28;45541;-62
2022/08/08 15:43:44;;;;;;;;;1.00;1.00;;;;;29.52;20.59;101911.56;4963304;28;45462;-62
2022/08/08 15:46:10;;;;;;;;;0.00;0.00;;;;;29.51;20.95;101910.69;4962370;28;53180;-61
2022/08/08 15:48:35;;;;;;;;;2.00;2.00;;;;;29.52;20.72;101895.97;4966133;28;66778;-61
2022/08/08 15:51:00;;;;;;;;;0.67;0.67;;;;;29.57;21.16;101891.84;4962987;28;52150;-61
2022/08/08 15:53:29;;;;;;;;;1.00;1.00;;;;;29.57;21.08;101897.31;4981660;28;45370;-61
2022/08/08 15:55:55;;;;;;;;;2.00;2.00;;;;;29.52;20.78;101906.09;4961806;28;45180;-61
2022/08/08 15:58:21;;;;;;;;;0.67;0.67;;;;;29.49;20.86;101907.28;4960371;28;46152;-61
2022/08/08 16:00:46;;;;;;;;;0.00;0.00;;;;;29.48;20.78;101904.75;4960574;28;45675;-61